sensor_id;sensor_type;location;lat;lon;timestamp;temperature;humidity
60868;DHT22;46702;48.370;10.794;2022-08-18T00:02:03;19.10;99.90
60868;DHT22;46702;48.370;10.794;2022-08-18T00:04:29;19.20;99.90
60868;DHT22;46702;48.370;10.794;2022-08-18T00:06:55;19.30;99.90
60868;DHT22;46702;48.370;10.794;2022-08-18T00:09:21;19.30;99.90
60868;DHT22;46702;48.370;10.794;2022-08-18T00:11:47;19.30;99.90
60868;DHT22;46702;48.370;10.794;2022-08-18T00:14:17;19.30;99.90
60868;DHT22;46702;48.370;10.794;2022-08-18T00:16:43;19.20;99.90
60868;DHT22;46702;48.370;10.794;2022-08-18T00:19:09;19.00;99.90
60868;DHT22;46702;48.370;10.794;2022-08-18T00:21:34;18.90;99.90
60868;DHT22;46702;48.370;10.794;2022-08-18T00:24:00;18.90;99.90
60868;DHT22;46702;48.370;10.794;2022-08-18T00:26:26;19.00;99.90
60868;DHT22;46702;48.370;10.794;2022-08-18T00:28:51;18.90;99.90
60868;DHT22;46702;48.370;10.794;2022-08-18T00:31:17;18.90;99.90
60868;DHT22;46702;48.370;10.794;2022-08-18T00:33:42;18.90;99.90
60868;DHT22;46702;48.370;10.794;2022-08-18T00:36:09;18.90;99.90
60868;DHT22;46702;48.370;10.794;2022-08-18T00:38:36;18.80;99.90
60868;DHT22;46702;48.370;10.794;2022-08-18T00:41:02;18.90;99.90
60868;DHT22;46702;48.370;10.794;2022-08-18T00:43:33;18.90;99.90
60868;DHT22;46702;48.370;10.794;2022-08-18T00:46:00;18.90;99.90
60868;DHT22;46702;48.370;10.794;2022-08-18T00:48:26;18.80;99.90
60868;DHT22;46702;48.370;10.794;2022-08-18T00:50:57;18.80;99.90
60868;DHT22;46702;48.370;10.794;2022-08-18T00:55:49;18.80;99.90
60868;DHT22;46702;48.370;10.794;2022-08-18T00:58:31;18.90;99.90
60868;DHT22;46702;48.370;10.794;2022-08-18T01:00:59;19.00;99.90
60868;DHT22;46702;48.370;10.794;2022-08-18T01:03:25;19.00;99.90
60868;DHT22;46702;48.370;10.794;2022-08-18T01:05:59;18.90;99.90
60868;DHT22;46702;48.370;10.794;2022-08-18T01:08:27;18.90;99.90
60868;DHT22;46702;48.370;10.794;2022-08-18T01:10:53;18.90;99.90
60868;DHT22;46702;48.370;10.794;2022-08-18T01:13:20;18.80;99.90
60868;DHT22;46702;48.370;10.794;2022-08-18T01:15:49;18.80;99.90
60868;DHT22;46702;48.370;10.794;2022-08-18T01:18:14;18.70;99.90
60868;DHT22;46702;48.370;10.794;2022-08-18T01:21:07;18.60;99.90
60868;DHT22;46702;48.370;10.794;2022-08-18T01:23:55;18.60;99.90
60868;DHT22;46702;48.370;10.794;2022-08-18T01:26:23;18.60;99.90
60868;DHT22;46702;48.370;10.794;2022-08-18T01:28:50;18.60;99.90
60868;DHT22;46702;48.370;10.794;2022-08-18T01:31:48;18.60;99.90
60868;DHT22;46702;48.370;10.794;2022-08-18T01:34:19;18.70;99.90
60868;DHT22;46702;48.370;10.794;2022-08-18T01:36:48;18.80;99.90
60868;DHT22;46702;48.370;10.794;2022-08-18T01:39:18;18.80;99.90
60868;DHT22;46702;48.370;10.794;2022-08-18T01:41:44;18.90;99.90
60868;DHT22;46702;48.370;10.794;2022-08-18T01:44:10;18.80;99.90
60868;DHT22;46702;48.370;10.794;2022-08-18T01:46:38;18.70;99.90
60868;DHT22;46702;48.370;10.794;2022-08-18T01:49:06;18.70;99.90
60868;DHT22;46702;48.370;10.794;2022-08-18T01:51:33;18.60;99.90
60868;DHT22;46702;48.370;10.794;2022-08-18T01:54:00;18.70;99.90
60868;DHT22;46702;48.370;10.794;2022-08-18T01:56:26;18.60;99.90
60868;DHT22;46702;48.370;10.794;2022-08-18T01:58:53;18.60;99.90
60868;DHT22;46702;48.370;10.794;2022-08-18T02:01:20;18.70;99.90
60868;DHT22;46702;48.370;10.794;2022-08-18T02:03:57;18.70;99.90
60868;DHT22;46702;48.370;10.794;2022-08-18T02:06:24;18.50;99.90
60868;DHT22;46702;48.370;10.794;2022-08-18T02:08:50;18.50;99.90
60868;DHT22;46702;48.370;10.794;2022-08-18T02:11:15;18.60;99.90
60868;DHT22;46702;48.370;10.794;2022-08-18T02:13:41;18.60;99.90
60868;DHT22;46702;48.370;10.794;2022-08-18T02:16:08;18.60;99.90
60868;DHT22;46702;48.370;10.794;2022-08-18T02:18:35;18.60;99.90
60868;DHT22;46702;48.370;10.794;2022-08-18T02:21:14;18.40;99.90
60868;DHT22;46702;48.370;10.794;2022-08-18T02:23:42;18.30;99.90
60868;DHT22;46702;48.370;10.794;2022-08-18T02:26:12;18.40;99.90
60868;DHT22;46702;48.370;10.794;2022-08-18T02:28:39;18.40;99.90
60868;DHT22;46702;48.370;10.794;2022-08-18T02:31:11;18.40;99.90
60868;DHT22;46702;48.370;10.794;2022-08-18T02:33:37;18.50;99.90
60868;DHT22;46702;48.370;10.794;2022-08-18T02:36:03;18.50;99.90
60868;DHT22;46702;48.370;10.794;2022-08-18T02:38:31;18.40;99.90
60868;DHT22;46702;48.370;10.794;2022-08-18T02:40:59;18.40;99.90
60868;DHT22;46702;48.370;10.794;2022-08-18T02:43:26;18.40;99.90
60868;DHT22;46702;48.370;10.794;2022-08-18T02:45:52;18.40;99.90
60868;DHT22;46702;48.370;10.794;2022-08-18T02:48:19;18.40;99.90
60868;DHT22;46702;48.370;10.794;2022-08-18T02:51:12;18.40;99.90
60868;DHT22;46702;48.370;10.794;2022-08-18T02:53:39;18.40;99.90
60868;DHT22;46702;48.370;10.794;2022-08-18T02:58:53;18.40;99.90
60868;DHT22;46702;48.370;10.794;2022-08-18T03:01:25;18.30;99.90
60868;DHT22;46702;48.370;10.794;2022-08-18T03:03:51;18.30;99.90
60868;DHT22;46702;48.370;10.794;2022-08-18T03:06:18;18.30;99.90
60868;DHT22;46702;48.370;10.794;2022-08-18T03:08:45;18.40;99.90
60868;DHT22;46702;48.370;10.794;2022-08-18T03:11:22;18.30;99.90
60868;DHT22;46702;48.370;10.794;2022-08-18T03:13:49;18.40;99.90
60868;DHT22;46702;48.370;10.794;2022-08-18T03:16:15;18.40;99.90
60868;DHT22;46702;48.370;10.794;2022-08-18T03:18:42;18.40;99.90
60868;DHT22;46702;48.370;10.794;2022-08-18T03:21:15;18.50;99.90
60868;DHT22;46702;48.370;10.794;2022-08-18T03:23:42;18.40;99.90
60868;DHT22;46702;48.370;10.794;2022-08-18T03:26:10;18.40;99.90
60868;DHT22;46702;48.370;10.794;2022-08-18T03:28:37;18.40;99.90
60868;DHT22;46702;48.370;10.794;2022-08-18T03:31:03;18.40;99.90
60868;DHT22;46702;48.370;10.794;2022-08-18T03:33:29;18.30;99.90
60868;DHT22;46702;48.370;10.794;2022-08-18T03:35:55;18.20;99.90
60868;DHT22;46702;48.370;10.794;2022-08-18T03:38:22;18.20;99.90
60868;DHT22;46702;48.370;10.794;2022-08-18T03:40:51;18.20;99.90
60868;DHT22;46702;48.370;10.794;2022-08-18T03:43:17;18.20;99.90
60868;DHT22;46702;48.370;10.794;2022-08-18T03:45:44;18.20;99.90
60868;DHT22;46702;48.370;10.794;2022-08-18T03:48:10;18.20;99.90
60868;DHT22;46702;48.370;10.794;2022-08-18T03:50:36;18.20;99.90
60868;DHT22;46702;48.370;10.794;2022-08-18T03:53:03;18.20;99.90
60868;DHT22;46702;48.370;10.794;2022-08-18T03:55:30;18.20;99.90
60868;DHT22;46702;48.370;10.794;2022-08-18T03:58:00;18.20;99.90
60868;DHT22;46702;48.370;10.794;2022-08-18T04:00:30;18.10;99.90
60868;DHT22;46702;48.370;10.794;2022-08-18T04:02:57;18.00;99.90
60868;DHT22;46702;48.370;10.794;2022-08-18T04:05:25;18.10;99.90
60868;DHT22;46702;48.370;10.794;2022-08-18T04:07:51;18.10;99.90
60868;DHT22;46702;48.370;10.794;2022-08-18T04:10:19;18.10;99.90
60868;DHT22;46702;48.370;10.794;2022-08-18T04:12:45;18.00;99.90
60868;DHT22;46702;48.370;10.794;2022-08-18T04:15:11;18.00;99.90
60868;DHT22;46702;48.370;10.794;2022-08-18T04:17:37;18.00;99.90
60868;DHT22;46702;48.370;10.794;2022-08-18T04:20:04;17.90;99.90
60868;DHT22;46702;48.370;10.794;2022-08-18T04:22:30;17.90;99.90
60868;DHT22;46702;48.370;10.794;2022-08-18T04:24:58;18.00;99.90
60868;DHT22;46702;48.370;10.794;2022-08-18T04:27:26;18.00;99.90
60868;DHT22;46702;48.370;10.794;2022-08-18T04:29:52;18.10;99.90
60868;DHT22;46702;48.370;10.794;2022-08-18T04:32:22;18.20;99.90
60868;DHT22;46702;48.370;10.794;2022-08-18T04:34:48;18.20;99.90
60868;DHT22;46702;48.370;10.794;2022-08-18T04:37:15;18.10;99.90
60868;DHT22;46702;48.370;10.794;2022-08-18T04:39:41;18.20;99.90
60868;DHT22;46702;48.370;10.794;2022-08-18T04:42:07;18.20;99.90
60868;DHT22;46702;48.370;10.794;2022-08-18T04:44:34;18.20;99.90
60868;DHT22;46702;48.370;10.794;2022-08-18T04:47:03;18.10;99.90
60868;DHT22;46702;48.370;10.794;2022-08-18T04:49:29;18.10;99.90
60868;DHT22;46702;48.370;10.794;2022-08-18T04:51:57;18.20;99.90
60868;DHT22;46702;48.370;10.794;2022-08-18T04:54:42;18.20;99.90
60868;DHT22;46702;48.370;10.794;2022-08-18T04:57:16;18.30;99.90
60868;DHT22;46702;48.370;10.794;2022-08-18T04:59:45;18.30;99.90
60868;DHT22;46702;48.370;10.794;2022-08-18T05:02:11;18.30;99.90
60868;DHT22;46702;48.370;10.794;2022-08-18T05:04:39;18.30;99.90
60868;DHT22;46702;48.370;10.794;2022-08-18T05:07:10;18.40;99.90
60868;DHT22;46702;48.370;10.794;2022-08-18T05:09:37;18.40;99.90
60868;DHT22;46702;48.370;10.794;2022-08-18T05:12:05;18.40;99.90
60868;DHT22;46702;48.370;10.794;2022-08-18T05:14:31;18.40;99.90
60868;DHT22;46702;48.370;10.794;2022-08-18T05:16:58;18.40;99.90
60868;DHT22;46702;48.370;10.794;2022-08-18T05:19:25;18.30;99.90
60868;DHT22;46702;48.370;10.794;2022-08-18T05:21:52;18.30;99.90
60868;DHT22;46702;48.370;10.794;2022-08-18T05:24:19;18.30;99.90
60868;DHT22;46702;48.370;10.794;2022-08-18T05:26:47;18.40;99.90
60868;DHT22;46702;48.370;10.794;2022-08-18T05:29:14;18.40;99.90
60868;DHT22;46702;48.370;10.794;2022-08-18T05:31:40;18.30;99.90
60868;DHT22;46702;48.370;10.794;2022-08-18T05:34:06;18.30;99.90
60868;DHT22;46702;48.370;10.794;2022-08-18T05:39:21;18.10;99.90
60868;DHT22;46702;48.370;10.794;2022-08-18T05:42:07;18.00;99.90
60868;DHT22;46702;48.370;10.794;2022-08-18T05:44:42;18.10;99.90
60868;DHT22;46702;48.370;10.794;2022-08-18T05:47:18;18.20;99.90
60868;DHT22;46702;48.370;10.794;2022-08-18T05:49:48;18.20;99.90
60868;DHT22;46702;48.370;10.794;2022-08-18T05:54:57;18.30;99.90
60868;DHT22;46702;48.370;10.794;2022-08-18T05:57:48;18.30;99.90
60868;DHT22;46702;48.370;10.794;2022-08-18T06:00:19;18.30;99.90
60868;DHT22;46702;48.370;10.794;2022-08-18T06:03:06;18.20;99.90
60868;DHT22;46702;48.370;10.794;2022-08-18T06:05:52;18.20;99.90
60868;DHT22;46702;48.370;10.794;2022-08-18T06:08:26;18.20;99.90
60868;DHT22;46702;48.370;10.794;2022-08-18T06:10:53;18.20;99.90
60868;DHT22;46702;48.370;10.794;2022-08-18T06:13:19;18.20;99.90
60868;DHT22;46702;48.370;10.794;2022-08-18T06:21:42;18.00;99.90
60868;DHT22;46702;48.370;10.794;2022-08-18T06:24:19;18.00;99.90
60868;DHT22;46702;48.370;10.794;2022-08-18T06:41:42;17.90;99.90
60868;DHT22;46702;48.370;10.794;2022-08-18T06:46:48;18.20;99.90
60868;DHT22;46702;48.370;10.794;2022-08-18T06:49:49;18.20;99.90
60868;DHT22;46702;48.370;10.794;2022-08-18T06:52:29;18.30;99.90
60868;DHT22;46702;48.370;10.794;2022-08-18T06:55:01;18.30;99.90
60868;DHT22;46702;48.370;10.794;2022-08-18T06:57:37;18.40;99.90
60868;DHT22;46702;48.370;10.794;2022-08-18T07:05:22;18.60;99.90
60868;DHT22;46702;48.370;10.794;2022-08-18T07:10:42;18.70;99.90
60868;DHT22;46702;48.370;10.794;2022-08-18T07:13:24;18.70;99.90
60868;DHT22;46702;48.370;10.794;2022-08-18T07:18:38;18.90;99.90
60868;DHT22;46702;48.370;10.794;2022-08-18T07:21:04;18.90;99.90
60868;DHT22;46702;48.370;10.794;2022-08-18T07:23:38;19.00;99.90
60868;DHT22;46702;48.370;10.794;2022-08-18T07:26:11;19.10;99.90
60868;DHT22;46702;48.370;10.794;2022-08-18T07:28:41;19.10;99.90
60868;DHT22;46702;48.370;10.794;2022-08-18T07:31:35;19.00;99.90
60868;DHT22;46702;48.370;10.794;2022-08-18T07:34:13;19.00;99.90
60868;DHT22;46702;48.370;10.794;2022-08-18T07:37:00;18.90;99.90
60868;DHT22;46702;48.370;10.794;2022-08-18T07:42:04;19.00;99.90
60868;DHT22;46702;48.370;10.794;2022-08-18T07:47:02;19.00;99.90
60868;DHT22;46702;48.370;10.794;2022-08-18T07:49:34;19.10;99.90
60868;DHT22;46702;48.370;10.794;2022-08-18T07:52:07;19.20;99.90
60868;DHT22;46702;48.370;10.794;2022-08-18T07:59:49;19.40;99.90
60868;DHT22;46702;48.370;10.794;2022-08-18T08:05:19;19.50;99.90
60868;DHT22;46702;48.370;10.794;2022-08-18T08:08:00;19.60;99.90
60868;DHT22;46702;48.370;10.794;2022-08-18T08:10:40;19.70;99.90
60868;DHT22;46702;48.370;10.794;2022-08-18T08:13:24;19.80;99.90
60868;DHT22;46702;48.370;10.794;2022-08-18T08:15:54;19.90;99.90
60868;DHT22;46702;48.370;10.794;2022-08-18T08:21:13;20.00;99.90
60868;DHT22;46702;48.370;10.794;2022-08-18T08:23:53;20.10;99.90
60868;DHT22;46702;48.370;10.794;2022-08-18T08:29:47;20.40;99.90
60868;DHT22;46702;48.370;10.794;2022-08-18T08:35:17;20.30;99.90
60868;DHT22;46702;48.370;10.794;2022-08-18T08:37:49;20.60;99.90
60868;DHT22;46702;48.370;10.794;2022-08-18T08:40:21;20.60;99.90
60868;DHT22;46702;48.370;10.794;2022-08-18T08:43:02;20.60;99.90
60868;DHT22;46702;48.370;10.794;2022-08-18T08:45:35;20.40;99.90
60868;DHT22;46702;48.370;10.794;2022-08-18T08:48:13;20.50;99.90
60868;DHT22;46702;48.370;10.794;2022-08-18T08:50:52;20.60;99.90
60868;DHT22;46702;48.370;10.794;2022-08-18T08:55:54;20.60;99.90
60868;DHT22;46702;48.370;10.794;2022-08-18T08:58:42;20.80;99.90
60868;DHT22;46702;48.370;10.794;2022-08-18T09:01:21;20.90;99.90
60868;DHT22;46702;48.370;10.794;2022-08-18T09:20:27;21.90;99.90
60868;DHT22;46702;48.370;10.794;2022-08-18T09:23:07;22.20;99.90
60868;DHT22;46702;48.370;10.794;2022-08-18T09:30:40;22.60;99.90
60868;DHT22;46702;48.370;10.794;2022-08-18T09:33:23;22.90;99.90
60868;DHT22;46702;48.370;10.794;2022-08-18T09:38:53;22.60;99.90
60868;DHT22;46702;48.370;10.794;2022-08-18T09:41:49;22.60;99.90
60868;DHT22;46702;48.370;10.794;2022-08-18T09:49:51;23.20;99.90
60868;DHT22;46702;48.370;10.794;2022-08-18T09:55:02;23.50;99.90
60868;DHT22;46702;48.370;10.794;2022-08-18T09:57:34;23.20;99.90
60868;DHT22;46702;48.370;10.794;2022-08-18T10:10:24;23.60;99.10
60868;DHT22;46702;48.370;10.794;2022-08-18T10:13:31;23.70;99.90
60868;DHT22;46702;48.370;10.794;2022-08-18T10:18:34;23.70;99.60
60868;DHT22;46702;48.370;10.794;2022-08-18T10:21:12;23.80;99.90
60868;DHT22;46702;48.370;10.794;2022-08-18T10:29:07;24.10;98.20
60868;DHT22;46702;48.370;10.794;2022-08-18T10:34:39;24.50;97.10
60868;DHT22;46702;48.370;10.794;2022-08-18T10:37:37;24.60;96.90
60868;DHT22;46702;48.370;10.794;2022-08-18T10:42:51;24.30;98.50
60868;DHT22;46702;48.370;10.794;2022-08-18T10:45:42;24.40;97.90
60868;DHT22;46702;48.370;10.794;2022-08-18T10:48:23;24.30;98.90
60868;DHT22;46702;48.370;10.794;2022-08-18T10:56:10;23.60;99.00
60868;DHT22;46702;48.370;10.794;2022-08-18T10:59:02;23.70;99.90
60868;DHT22;46702;48.370;10.794;2022-08-18T11:01:45;24.00;99.60
60868;DHT22;46702;48.370;10.794;2022-08-18T11:04:44;24.60;96.50
60868;DHT22;46702;48.370;10.794;2022-08-18T11:07:20;24.00;95.30
60868;DHT22;46702;48.370;10.794;2022-08-18T11:09:57;24.40;97.90
60868;DHT22;46702;48.370;10.794;2022-08-18T11:20:39;24.50;95.40
60868;DHT22;46702;48.370;10.794;2022-08-18T11:23:11;24.40;95.40
60868;DHT22;46702;48.370;10.794;2022-08-18T11:25:36;24.40;95.40
60868;DHT22;46702;48.370;10.794;2022-08-18T11:28:17;24.20;97.30
60868;DHT22;46702;48.370;10.794;2022-08-18T11:30:45;24.20;98.50
60868;DHT22;46702;48.370;10.794;2022-08-18T11:33:16;24.30;96.70
60868;DHT22;46702;48.370;10.794;2022-08-18T11:35:53;24.30;95.80
60868;DHT22;46702;48.370;10.794;2022-08-18T11:38:24;24.40;99.90
60868;DHT22;46702;48.370;10.794;2022-08-18T11:41:07;24.40;97.30
60868;DHT22;46702;48.370;10.794;2022-08-18T11:43:35;24.30;96.20
60868;DHT22;46702;48.370;10.794;2022-08-18T11:46:13;24.30;93.50
60868;DHT22;46702;48.370;10.794;2022-08-18T11:56:30;24.30;96.10
60868;DHT22;46702;48.370;10.794;2022-08-18T11:58:59;24.10;95.60
60868;DHT22;46702;48.370;10.794;2022-08-18T12:01:52;24.30;94.10
60868;DHT22;46702;48.370;10.794;2022-08-18T12:04:29;24.30;92.60
60868;DHT22;46702;48.370;10.794;2022-08-18T12:17:36;24.30;93.50
60868;DHT22;46702;48.370;10.794;2022-08-18T12:20:02;24.40;95.20
60868;DHT22;46702;48.370;10.794;2022-08-18T12:22:30;24.50;92.70
60868;DHT22;46702;48.370;10.794;2022-08-18T12:24:57;24.50;91.20
60868;DHT22;46702;48.370;10.794;2022-08-18T12:27:24;24.50;93.40
60868;DHT22;46702;48.370;10.794;2022-08-18T12:29:51;24.40;91.70
60868;DHT22;46702;48.370;10.794;2022-08-18T12:32:18;24.40;94.20
60868;DHT22;46702;48.370;10.794;2022-08-18T12:34:45;24.50;93.60
60868;DHT22;46702;48.370;10.794;2022-08-18T12:37:15;24.40;95.20
60868;DHT22;46702;48.370;10.794;2022-08-18T12:39:41;24.50;94.10
60868;DHT22;46702;48.370;10.794;2022-08-18T12:42:08;24.40;94.90
60868;DHT22;46702;48.370;10.794;2022-08-18T12:44:33;24.40;95.50
60868;DHT22;46702;48.370;10.794;2022-08-18T12:47:08;24.50;98.70
60868;DHT22;46702;48.370;10.794;2022-08-18T12:49:35;24.50;92.60
60868;DHT22;46702;48.370;10.794;2022-08-18T12:52:00;24.50;92.80
60868;DHT22;46702;48.370;10.794;2022-08-18T12:54:26;24.50;93.70
60868;DHT22;46702;48.370;10.794;2022-08-18T12:56:54;24.50;93.20
60868;DHT22;46702;48.370;10.794;2022-08-18T12:59:20;24.50;92.40
60868;DHT22;46702;48.370;10.794;2022-08-18T13:01:46;24.60;94.80
60868;DHT22;46702;48.370;10.794;2022-08-18T13:04:12;24.50;93.00
60868;DHT22;46702;48.370;10.794;2022-08-18T13:06:41;24.30;94.80
60868;DHT22;46702;48.370;10.794;2022-08-18T13:09:09;24.30;94.30
60868;DHT22;46702;48.370;10.794;2022-08-18T13:11:34;24.30;92.90
60868;DHT22;46702;48.370;10.794;2022-08-18T13:14:00;24.30;94.30
60868;DHT22;46702;48.370;10.794;2022-08-18T13:16:27;24.50;93.60
60868;DHT22;46702;48.370;10.794;2022-08-18T13:18:55;24.70;93.80
60868;DHT22;46702;48.370;10.794;2022-08-18T13:21:21;24.60;94.60
60868;DHT22;46702;48.370;10.794;2022-08-18T13:23:46;24.50;94.20
60868;DHT22;46702;48.370;10.794;2022-08-18T13:26:17;24.50;94.20
60868;DHT22;46702;48.370;10.794;2022-08-18T13:28:45;24.50;93.90
60868;DHT22;46702;48.370;10.794;2022-08-18T13:31:11;24.70;95.00
60868;DHT22;46702;48.370;10.794;2022-08-18T13:33:37;24.70;93.60
60868;DHT22;46702;48.370;10.794;2022-08-18T13:36:04;24.90;90.00
60868;DHT22;46702;48.370;10.794;2022-08-18T13:38:30;25.00;90.60
60868;DHT22;46702;48.370;10.794;2022-08-18T13:40:58;24.90;92.50
60868;DHT22;46702;48.370;10.794;2022-08-18T13:43:36;24.80;93.40
60868;DHT22;46702;48.370;10.794;2022-08-18T13:46:03;24.70;94.00
60868;DHT22;46702;48.370;10.794;2022-08-18T13:48:28;24.60;93.50
60868;DHT22;46702;48.370;10.794;2022-08-18T13:50:56;24.50;93.00
60868;DHT22;46702;48.370;10.794;2022-08-18T13:53:24;24.50;94.30
60868;DHT22;46702;48.370;10.794;2022-08-18T13:55:50;24.30;94.30
60868;DHT22;46702;48.370;10.794;2022-08-18T13:58:16;24.30;93.30
60868;DHT22;46702;48.370;10.794;2022-08-18T14:00:42;24.30;94.30
60868;DHT22;46702;48.370;10.794;2022-08-18T14:03:09;24.40;94.00
60868;DHT22;46702;48.370;10.794;2022-08-18T14:05:35;24.50;92.80
60868;DHT22;46702;48.370;10.794;2022-08-18T14:08:01;24.60;94.40
60868;DHT22;46702;48.370;10.794;2022-08-18T14:10:28;24.70;93.00
60868;DHT22;46702;48.370;10.794;2022-08-18T14:12:56;24.90;90.80
60868;DHT22;46702;48.370;10.794;2022-08-18T14:15:22;24.90;92.60
60868;DHT22;46702;48.370;10.794;2022-08-18T14:17:48;25.00;91.20
60868;DHT22;46702;48.370;10.794;2022-08-18T14:20:15;25.10;91.10
60868;DHT22;46702;48.370;10.794;2022-08-18T14:23:01;25.10;91.20
60868;DHT22;46702;48.370;10.794;2022-08-18T14:25:45;24.80;92.30
60868;DHT22;46702;48.370;10.794;2022-08-18T14:28:31;24.60;93.80
60868;DHT22;46702;48.370;10.794;2022-08-18T14:30:57;24.60;95.20
60868;DHT22;46702;48.370;10.794;2022-08-18T14:33:25;24.70;92.00
60868;DHT22;46702;48.370;10.794;2022-08-18T14:35:51;24.60;92.80
60868;DHT22;46702;48.370;10.794;2022-08-18T14:38:17;24.60;91.20
60868;DHT22;46702;48.370;10.794;2022-08-18T14:40:44;24.70;92.40
60868;DHT22;46702;48.370;10.794;2022-08-18T14:43:11;24.80;91.50
60868;DHT22;46702;48.370;10.794;2022-08-18T14:45:38;24.90;91.20
60868;DHT22;46702;48.370;10.794;2022-08-18T14:48:04;24.90;91.50
60868;DHT22;46702;48.370;10.794;2022-08-18T14:50:31;24.80;90.80
60868;DHT22;46702;48.370;10.794;2022-08-18T14:52:57;24.80;90.50
60868;DHT22;46702;48.370;10.794;2022-08-18T14:55:23;24.70;90.00
60868;DHT22;46702;48.370;10.794;2022-08-18T14:57:49;24.70;91.60
60868;DHT22;46702;48.370;10.794;2022-08-18T15:00:16;24.80;91.00
60868;DHT22;46702;48.370;10.794;2022-08-18T15:02:44;24.80;92.00
60868;DHT22;46702;48.370;10.794;2022-08-18T15:05:11;24.90;92.30
60868;DHT22;46702;48.370;10.794;2022-08-18T15:07:37;24.90;90.50
60868;DHT22;46702;48.370;10.794;2022-08-18T15:10:06;24.70;91.30
60868;DHT22;46702;48.370;10.794;2022-08-18T15:12:32;24.70;91.80
60868;DHT22;46702;48.370;10.794;2022-08-18T15:14:57;24.60;92.00
60868;DHT22;46702;48.370;10.794;2022-08-18T15:17:24;24.60;92.10
60868;DHT22;46702;48.370;10.794;2022-08-18T15:19:52;24.60;91.70
60868;DHT22;46702;48.370;10.794;2022-08-18T15:22:18;24.50;93.00
60868;DHT22;46702;48.370;10.794;2022-08-18T15:25:03;24.50;92.70
60868;DHT22;46702;48.370;10.794;2022-08-18T15:27:47;24.40;92.90
60868;DHT22;46702;48.370;10.794;2022-08-18T15:30:14;24.40;92.90
60868;DHT22;46702;48.370;10.794;2022-08-18T15:32:41;24.30;93.70
60868;DHT22;46702;48.370;10.794;2022-08-18T15:35:08;24.20;94.30
60868;DHT22;46702;48.370;10.794;2022-08-18T15:37:35;24.10;94.70
60868;DHT22;46702;48.370;10.794;2022-08-18T15:40:13;23.90;96.00
60868;DHT22;46702;48.370;10.794;2022-08-18T15:42:46;23.90;96.60
60868;DHT22;46702;48.370;10.794;2022-08-18T15:45:15;23.80;97.40
60868;DHT22;46702;48.370;10.794;2022-08-18T15:47:44;23.70;96.90
60868;DHT22;46702;48.370;10.794;2022-08-18T15:50:11;23.70;97.00
60868;DHT22;46702;48.370;10.794;2022-08-18T15:52:47;23.70;97.60
60868;DHT22;46702;48.370;10.794;2022-08-18T15:55:18;23.60;98.00
60868;DHT22;46702;48.370;10.794;2022-08-18T15:57:45;23.60;98.70
60868;DHT22;46702;48.370;10.794;2022-08-18T16:00:11;23.50;98.80
60868;DHT22;46702;48.370;10.794;2022-08-18T16:02:40;23.60;99.20
60868;DHT22;46702;48.370;10.794;2022-08-18T16:05:07;23.50;98.80
60868;DHT22;46702;48.370;10.794;2022-08-18T16:07:33;23.40;99.90
60868;DHT22;46702;48.370;10.794;2022-08-18T16:10:00;23.40;99.70
60868;DHT22;46702;48.370;10.794;2022-08-18T16:12:26;23.40;99.80
60868;DHT22;46702;48.370;10.794;2022-08-18T16:14:52;23.30;99.70
60868;DHT22;46702;48.370;10.794;2022-08-18T16:17:18;23.30;99.40
60868;DHT22;46702;48.370;10.794;2022-08-18T16:19:45;23.30;99.30
60868;DHT22;46702;48.370;10.794;2022-08-18T16:22:11;23.20;99.40
60868;DHT22;46702;48.370;10.794;2022-08-18T16:24:38;23.20;99.20
60868;DHT22;46702;48.370;10.794;2022-08-18T16:27:03;23.20;99.90
60868;DHT22;46702;48.370;10.794;2022-08-18T16:29:31;23.10;99.90
60868;DHT22;46702;48.370;10.794;2022-08-18T16:31:57;23.10;99.90
60868;DHT22;46702;48.370;10.794;2022-08-18T16:34:22;23.10;99.90
60868;DHT22;46702;48.370;10.794;2022-08-18T16:36:48;23.10;99.90
60868;DHT22;46702;48.370;10.794;2022-08-18T16:39:14;23.00;99.90
60868;DHT22;46702;48.370;10.794;2022-08-18T16:41:39;23.00;99.90
60868;DHT22;46702;48.370;10.794;2022-08-18T16:44:05;23.00;99.90
60868;DHT22;46702;48.370;10.794;2022-08-18T16:46:30;23.00;99.90
60868;DHT22;46702;48.370;10.794;2022-08-18T16:48:57;23.00;99.90
60868;DHT22;46702;48.370;10.794;2022-08-18T16:51:25;23.00;99.90
60868;DHT22;46702;48.370;10.794;2022-08-18T16:53:50;23.00;99.90
60868;DHT22;46702;48.370;10.794;2022-08-18T16:56:20;23.00;99.90
60868;DHT22;46702;48.370;10.794;2022-08-18T16:58:46;22.90;99.70
60868;DHT22;46702;48.370;10.794;2022-08-18T17:01:30;22.90;99.90
60868;DHT22;46702;48.370;10.794;2022-08-18T17:04:19;22.80;99.90
60868;DHT22;46702;48.370;10.794;2022-08-18T17:06:45;22.80;99.90
60868;DHT22;46702;48.370;10.794;2022-08-18T17:09:11;22.70;99.90
60868;DHT22;46702;48.370;10.794;2022-08-18T17:11:37;22.60;99.90
60868;DHT22;46702;48.370;10.794;2022-08-18T17:14:05;22.40;99.90
60868;DHT22;46702;48.370;10.794;2022-08-18T17:16:33;22.20;99.90
60868;DHT22;46702;48.370;10.794;2022-08-18T17:18:59;22.10;99.90
60868;DHT22;46702;48.370;10.794;2022-08-18T17:21:27;21.60;99.90
60868;DHT22;46702;48.370;10.794;2022-08-18T17:23:58;21.50;99.90
60868;DHT22;46702;48.370;10.794;2022-08-18T17:26:43;21.50;99.90
60868;DHT22;46702;48.370;10.794;2022-08-18T17:29:42;21.60;99.90
60868;DHT22;46702;48.370;10.794;2022-08-18T17:32:25;21.50;99.90
60868;DHT22;46702;48.370;10.794;2022-08-18T17:34:59;21.50;99.90
60868;DHT22;46702;48.370;10.794;2022-08-18T17:37:26;21.50;99.90
60868;DHT22;46702;48.370;10.794;2022-08-18T17:39:56;21.20;99.90
60868;DHT22;46702;48.370;10.794;2022-08-18T17:42:25;21.20;99.90
60868;DHT22;46702;48.370;10.794;2022-08-18T17:44:57;21.30;99.90
60868;DHT22;46702;48.370;10.794;2022-08-18T17:47:33;21.40;99.90
60868;DHT22;46702;48.370;10.794;2022-08-18T17:50:11;21.30;99.90
60868;DHT22;46702;48.370;10.794;2022-08-18T17:53:03;21.20;99.90
60868;DHT22;46702;48.370;10.794;2022-08-18T17:55:45;21.40;99.90
60868;DHT22;46702;48.370;10.794;2022-08-18T18:00:42;21.40;99.90
60868;DHT22;46702;48.370;10.794;2022-08-18T18:03:09;21.40;99.90
60868;DHT22;46702;48.370;10.794;2022-08-18T18:05:39;21.50;99.90
60868;DHT22;46702;48.370;10.794;2022-08-18T18:08:05;21.50;99.90
60868;DHT22;46702;48.370;10.794;2022-08-18T18:10:47;21.50;99.90
60868;DHT22;46702;48.370;10.794;2022-08-18T18:13:29;21.50;99.90
60868;DHT22;46702;48.370;10.794;2022-08-18T18:16:02;21.50;99.90
60868;DHT22;46702;48.370;10.794;2022-08-18T18:18:43;21.50;99.90